Time;durP1;ratioP1;P1;durP2;ratioP2;P2;SDS_P1;SDS_P2;PMS_P1;PMS_P2;Temp;Humidity;BMP_temperature;BMP_pressure;BME280_temperature;BME280_humidity;BME280_pressure;Samples;Min_cycle;Max_cycle;Signal;HPM_P1;HPM_P2
2023/06/05 00:00:52;;;;;;;2.23;2.00;;;;;;;;;;6214875;23;20175;-84
2023/06/05 00:03:27;;;;;;;1.57;1.03;;;;;;;;;;6214531;23;20182;-85
2023/06/05 00:05:56;;;;;;;3.17;1.93;;;;;;;;;;6214552;23;20170;-85
2023/06/05 00:08:24;;;;;;;3.37;2.60;;;;;;;;;;6214999;23;20178;-85
2023/06/05 00:10:53;;;;;;;2.33;2.13;;;;;;;;;;6214938;23;20199;-85
2023/06/05 00:13:21;;;;;;;3.90;2.50;;;;;;;;;;6214315;23;20198;-85
2023/06/05 00:15:50;;;;;;;2.57;2.37;;;;;;;;;;6214626;23;20177;-86
2023/06/05 00:18:20;;;;;;;6.03;5.57;;;;;;;;;;6215142;23;20178;-85
2023/06/05 00:20:49;;;;;;;4.03;3.60;;;;;;;;;;6214473;23;20175;-85
2023/06/05 00:23:17;;;;;;;1.80;1.70;;;;;;;;;;6214989;23;20179;-85
2023/06/05 00:25:46;;;;;;;3.57;2.67;;;;;;;;;;6214507;23;20178;-85
2023/06/05 00:28:15;;;;;;;1.77;1.63;;;;;;;;;;6214282;23;20198;-84
2023/06/05 00:30:43;;;;;;;3.47;3.23;;;;;;;;;;6214880;23;20186;-84
2023/06/05 00:33:12;;;;;;;7.33;4.00;;;;;;;;;;6215279;23;20170;-84
2023/06/05 00:35:42;;;;;;;1.10;1.10;;;;;;;;;;6215023;23;20174;-84
2023/06/05 00:38:11;;;;;;;4.77;3.30;;;;;;;;;;6214759;23;20175;-84
2023/06/05 00:40:39;;;;;;;2.67;2.47;;;;;;;;;;6214745;23;20167;-84
2023/06/05 00:43:08;;;;;;;4.33;2.77;;;;;;;;;;6214517;23;20224;-83
2023/06/05 00:45:36;;;;;;;7.97;2.87;;;;;;;;;;6213941;23;20198;-83
2023/06/05 00:48:05;;;;;;;2.47;2.27;;;;;;;;;;6214520;23;20268;-84
2023/06/05 00:50:34;;;;;;;2.37;2.17;;;;;;;;;;6214986;23;20229;-83
2023/06/05 00:53:04;;;;;;;2.83;2.63;;;;;;;;;;6214156;23;20187;-84
2023/06/05 00:55:33;;;;;;;7.87;2.07;;;;;;;;;;6214142;23;20205;-84
2023/06/05 00:58:03;;;;;;;4.90;2.10;;;;;;;;;;6214011;23;20233;-84
2023/06/05 01:00:32;;;;;;;2.60;2.27;;;;;;;;;;6213886;23;20174;-83
2023/06/05 01:03:01;;;;;;;3.87;2.40;;;;;;;;;;6213909;23;20186;-84
2023/06/05 01:05:30;;;;;;;2.63;1.83;;;;;;;;;;6214632;23;20197;-84
2023/06/05 01:08:02;;;;;;;1.33;1.27;;;;;;;;;;6214312;23;20178;-84
2023/06/05 01:10:33;;;;;;;4.03;2.73;;;;;;;;;;6214103;23;20209;-84
2023/06/05 01:13:06;;;;;;;2.33;2.20;;;;;;;;;;6213811;23;20171;-85
2023/06/05 01:15:36;;;;;;;4.20;3.90;;;;;;;;;;6214502;23;20183;-85
2023/06/05 01:18:04;;;;;;;2.67;2.10;;;;;;;;;;6214077;23;20265;-85
2023/06/05 01:20:34;;;;;;;3.53;2.40;;;;;;;;;;6213751;23;20175;-85
2023/06/05 01:23:04;;;;;;;2.23;2.13;;;;;;;;;;6214569;23;20189;-85
2023/06/05 01:25:34;;;;;;;5.90;2.37;;;;;;;;;;6213684;23;20255;-85
2023/06/05 01:28:08;;;;;;;1.17;1.17;;;;;;;;;;6213278;23;20213;-86
2023/06/05 01:30:41;;;;;;;3.77;2.60;;;;;;;;;;6214171;23;20198;-85
2023/06/05 01:33:12;;;;;;;1.13;1.10;;;;;;;;;;6213501;23;20217;-85
2023/06/05 01:35:41;;;;;;;2.10;1.90;;;;;;;;;;6213651;23;20177;-85
2023/06/05 01:38:11;;;;;;;5.57;2.43;;;;;;;;;;6214189;23;20188;-85
2023/06/05 01:40:40;;;;;;;3.00;2.73;;;;;;;;;;6213929;23;20173;-85
2023/06/05 01:43:09;;;;;;;6.47;2.57;;;;;;;;;;6213624;23;20202;-85
2023/06/05 01:45:40;;;;;;;4.13;3.50;;;;;;;;;;6213809;23;20186;-85
2023/06/05 01:48:10;;;;;;;3.17;2.67;;;;;;;;;;6213570;23;20178;-86
2023/06/05 01:50:42;;;;;;;1.97;1.87;;;;;;;;;;6213707;23;20198;-85
2023/06/05 01:53:12;;;;;;;3.07;2.77;;;;;;;;;;6214151;23;20174;-85
2023/06/05 01:55:41;;;;;;;4.43;3.47;;;;;;;;;;6213446;23;20167;-85
2023/06/05 01:58:09;;;;;;;2.03;1.93;;;;;;;;;;6213775;23;20206;-85
2023/06/05 02:00:39;;;;;;;4.00;2.10;;;;;;;;;;6212945;23;20179;-85
2023/06/05 02:03:07;;;;;;;3.03;2.77;;;;;;;;;;6213600;23;20197;-85
2023/06/05 02:05:36;;;;;;;2.97;2.77;;;;;;;;;;6213578;23;20171;-85
2023/06/05 02:08:09;;;;;;;4.13;2.50;;;;;;;;;;6213979;23;20253;-85
2023/06/05 02:10:42;;;;;;;4.07;3.03;;;;;;;;;;6212973;23;20247;-85
2023/06/05 02:13:11;;;;;;;6.97;2.50;;;;;;;;;;6213977;23;20171;-85
2023/06/05 02:15:41;;;;;;;3.40;3.07;;;;;;;;;;6213717;23;20179;-85
2023/06/05 02:18:11;;;;;;;1.03;1.03;;;;;;;;;;6213499;23;20181;-85
2023/06/05 02:20:40;;;;;;;1.23;1.23;;;;;;;;;;6213739;23;20169;-85
2023/06/05 02:23:08;;;;;;;1.97;1.87;;;;;;;;;;6213800;23;20179;-85
2023/06/05 02:25:38;;;;;;;2.63;2.43;;;;;;;;;;6213672;23;20178;-85
2023/06/05 02:28:06;;;;;;;0.80;0.80;;;;;;;;;;6213662;23;20194;-85
2023/06/05 02:30:35;;;;;;;3.30;1.70;;;;;;;;;;6213428;23;20209;-86
2023/06/05 02:33:04;;;;;;;1.03;1.03;;;;;;;;;;6213620;23;20202;-85
2023/06/05 02:35:32;;;;;;;1.30;1.20;;;;;;;;;;6213199;23;20174;-85
2023/06/05 02:38:01;;;;;;;1.97;1.80;;;;;;;;;;6213276;23;20186;-85
2023/06/05 02:40:30;;;;;;;1.80;1.67;;;;;;;;;;6213993;23;20273;-85
2023/06/05 02:43:00;;;;;;;1.80;1.47;;;;;;;;;;6213667;23;20180;-85
2023/06/05 02:45:28;;;;;;;1.40;1.30;;;;;;;;;;6213848;23;20224;-86
2023/06/05 02:47:56;;;;;;;0.60;0.60;;;;;;;;;;6213521;23;20183;-84
2023/06/05 02:50:25;;;;;;;1.47;1.37;;;;;;;;;;6213667;23;20182;-84
2023/06/05 02:52:53;;;;;;;1.03;0.97;;;;;;;;;;6213865;23;20175;-84
2023/06/05 02:55:29;;;;;;;1.70;1.60;;;;;;;;;;6213939;23;20218;-84
2023/06/05 02:57:59;;;;;;;1.17;1.17;;;;;;;;;;6213716;23;20207;-84
2023/06/05 03:00:28;;;;;;;1.90;1.67;;;;;;;;;;6213204;23;20190;-84
2023/06/05 03:02:57;;;;;;;1.93;1.83;;;;;;;;;;6214099;23;20175;-84
2023/06/05 03:05:26;;;;;;;5.43;2.37;;;;;;;;;;6213377;23;20175;-83
2023/06/05 03:07:57;;;;;;;1.43;1.07;;;;;;;;;;6212462;23;20171;-84
2023/06/05 03:10:27;;;;;;;5.00;1.90;;;;;;;;;;6213676;23;20206;-84
2023/06/05 03:12:56;;;;;;;1.33;1.30;;;;;;;;;;6213688;23;20171;-84
2023/06/05 03:15:27;;;;;;;2.03;1.93;;;;;;;;;;6213491;23;20174;-84
2023/06/05 03:17:56;;;;;;;2.00;1.47;;;;;;;;;;6213613;23;20179;-84
2023/06/05 03:20:25;;;;;;;2.57;1.53;;;;;;;;;;6213962;23;20179;-84
2023/06/05 03:22:53;;;;;;;2.27;1.83;;;;;;;;;;6214787;23;20175;-84
2023/06/05 03:25:22;;;;;;;1.40;1.30;;;;;;;;;;6214883;23;20236;-85
2023/06/05 03:27:51;;;;;;;12.90;2.23;;;;;;;;;;6215151;23;20196;-85
2023/06/05 03:30:19;;;;;;;2.30;2.10;;;;;;;;;;6215293;23;20167;-85
2023/06/05 03:32:49;;;;;;;1.47;1.37;;;;;;;;;;6214660;23;20200;-85
2023/06/05 03:35:18;;;;;;;2.37;2.13;;;;;;;;;;6215285;23;20167;-85
2023/06/05 03:37:46;;;;;;;1.77;1.40;;;;;;;;;;6215032;23;20210;-85
2023/06/05 03:40:15;;;;;;;0.60;0.60;;;;;;;;;;6215287;23;20221;-85
2023/06/05 03:42:44;;;;;;;2.73;2.20;;;;;;;;;;6214899;23;20220;-85
2023/06/05 03:45:15;;;;;;;1.23;1.23;;;;;;;;;;6214903;23;20178;-86
2023/06/05 03:47:48;;;;;;;1.57;1.47;;;;;;;;;;6215306;23;20178;-86
2023/06/05 03:50:18;;;;;;;1.10;1.10;;;;;;;;;;6214536;23;20183;-85
2023/06/05 03:52:52;;;;;;;1.47;1.37;;;;;;;;;;6214948;23;20196;-85
2023/06/05 03:55:21;;;;;;;3.40;2.40;;;;;;;;;;6214722;23;20197;-85
2023/06/05 03:57:49;;;;;;;2.10;1.17;;;;;;;;;;6214682;23;20203;-85
2023/06/05 04:00:18;;;;;;;1.73;1.63;;;;;;;;;;6215439;23;20179;-85
2023/06/05 04:02:50;;;;;;;0.90;0.90;;;;;;;;;;6214819;23;20170;-85
2023/06/05 04:05:20;;;;;;;3.30;1.87;;;;;;;;;;6214594;23;20265;-85
2023/06/05 04:07:48;;;;;;;1.10;1.10;;;;;;;;;;6214549;23;20186;-85
2023/06/05 04:10:17;;;;;;;1.70;1.60;;;;;;;;;;6214863;23;20180;-85
2023/06/05 04:12:45;;;;;;;2.33;1.97;;;;;;;;;;6214707;23;20186;-85
2023/06/05 04:15:14;;;;;;;6.57;3.13;;;;;;;;;;6214458;23;20179;-86
2023/06/05 04:17:42;;;;;;;3.43;2.17;;;;;;;;;;6214725;23;20282;-85
2023/06/05 04:20:14;;;;;;;5.00;1.50;;;;;;;;;;6214242;23;20179;-86
2023/06/05 04:22:44;;;;;;;0.80;0.80;;;;;;;;;;6214321;23;20167;-86
2023/06/05 04:25:13;;;;;;;5.87;5.03;;;;;;;;;;6214436;23;20173;-85
2023/06/05 04:27:42;;;;;;;7.73;2.67;;;;;;;;;;6214482;23;20199;-85
2023/06/05 04:30:12;;;;;;;5.77;2.07;;;;;;;;;;6214669;23;20202;-86
2023/06/05 04:32:41;;;;;;;10.97;1.73;;;;;;;;;;6214469;23;20197;-85
2023/06/05 04:35:10;;;;;;;1.20;1.20;;;;;;;;;;6214903;23;20231;-85
2023/06/05 04:37:39;;;;;;;1.17;1.17;;;;;;;;;;6214107;23;20167;-86
2023/06/05 04:40:10;;;;;;;1.33;1.23;;;;;;;;;;6214037;23;20184;-86
2023/06/05 04:42:38;;;;;;;1.90;1.80;;;;;;;;;;6214517;23;20178;-83
2023/06/05 04:45:08;;;;;;;1.57;1.47;;;;;;;;;;6214363;23;20172;-83
2023/06/05 04:47:37;;;;;;;3.70;1.10;;;;;;;;;;6214091;23;20188;-83
2023/06/05 04:50:06;;;;;;;1.73;1.63;;;;;;;;;;6214209;23;20187;-83
2023/06/05 04:52:39;;;;;;;1.43;1.33;;;;;;;;;;6214779;23;20201;-83
2023/06/05 04:55:10;;;;;;;3.33;2.00;;;;;;;;;;6214108;23;20222;-83
2023/06/05 04:57:41;;;;;;;1.67;1.57;;;;;;;;;;6213728;23;20204;-84
2023/06/05 05:00:11;;;;;;;3.93;1.80;;;;;;;;;;6214123;23;20200;-86
2023/06/05 05:02:40;;;;;;;4.90;1.63;;;;;;;;;;6214419;23;20191;-85
2023/06/05 05:05:13;;;;;;;3.37;1.77;;;;;;;;;;6213723;23;20203;-86
2023/06/05 05:07:42;;;;;;;2.57;2.37;;;;;;;;;;6214577;23;20185;-85
2023/06/05 05:10:12;;;;;;;1.80;1.70;;;;;;;;;;6213874;23;20259;-85
2023/06/05 05:12:40;;;;;;;2.00;1.37;;;;;;;;;;6213373;23;20266;-85
2023/06/05 05:15:10;;;;;;;3.63;2.97;;;;;;;;;;6214233;23;20206;-86
2023/06/05 05:17:38;;;;;;;1.13;1.07;;;;;;;;;;6213751;23;20198;-85
2023/06/05 05:20:07;;;;;;;1.87;1.77;;;;;;;;;;6214459;23;20170;-85
2023/06/05 05:22:36;;;;;;;4.40;3.20;;;;;;;;;;6214005;23;20243;-86
2023/06/05 05:25:05;;;;;;;2.97;2.03;;;;;;;;;;6214065;23;20185;-85
2023/06/05 05:27:35;;;;;;;1.27;1.17;;;;;;;;;;6213565;23;20222;-83
2023/06/05 05:30:04;;;;;;;1.47;1.37;;;;;;;;;;6213956;23;20186;-83
2023/06/05 05:32:33;;;;;;;2.03;1.73;;;;;;;;;;6214219;23;20196;-84
2023/06/05 05:35:02;;;;;;;2.13;1.93;;;;;;;;;;6214288;23;20184;-83
2023/06/05 05:37:32;;;;;;;1.50;1.40;;;;;;;;;;6213561;23;20174;-84
2023/06/05 05:40:00;;;;;;;1.23;1.13;;;;;;;;;;6213862;23;20203;-85
2023/06/05 05:42:29;;;;;;;1.80;1.43;;;;;;;;;;6213831;23;20179;-85
2023/06/05 05:44:59;;;;;;;2.83;2.57;;;;;;;;;;6213529;23;20173;-86
2023/06/05 05:47:29;;;;;;;1.80;1.37;;;;;;;;;;6213059;23;20173;-86
2023/06/05 05:49:58;;;;;;;1.80;1.80;;;;;;;;;;6214385;23;20203;-85
2023/06/05 05:52:27;;;;;;;2.43;2.00;;;;;;;;;;6213755;23;20235;-86
2023/06/05 05:54:55;;;;;;;2.67;2.23;;;;;;;;;;6213665;23;20185;-86
2023/06/05 05:57:24;;;;;;;2.43;1.57;;;;;;;;;;6213825;23;20205;-85
2023/06/05 05:59:53;;;;;;;2.73;1.70;;;;;;;;;;6213986;23;20185;-85
2023/06/05 06:02:23;;;;;;;1.90;1.63;;;;;;;;;;6213432;23;20201;-85
2023/06/05 06:04:51;;;;;;;2.87;2.63;;;;;;;;;;6213664;23;20177;-85
2023/06/05 06:07:20;;;;;;;1.87;1.60;;;;;;;;;;6213382;23;20203;-85
2023/06/05 06:09:49;;;;;;;4.07;2.37;;;;;;;;;;6213962;23;20191;-85
2023/06/05 06:12:18;;;;;;;1.83;1.70;;;;;;;;;;6213657;23;20198;-86
2023/06/05 06:14:49;;;;;;;1.70;1.60;;;;;;;;;;6214485;23;20185;-85
2023/06/05 06:17:18;;;;;;;6.27;4.73;;;;;;;;;;6213635;23;20179;-85
2023/06/05 06:20:03;;;;;;;1.43;1.37;;;;;;;;;;6213116;23;20174;-85
2023/06/05 06:22:34;;;;;;;1.40;1.30;;;;;;;;;;6213698;23;20170;-85
2023/06/05 06:25:04;;;;;;;1.60;1.47;;;;;;;;;;6213966;23;20249;-85
2023/06/05 06:27:34;;;;;;;3.07;2.77;;;;;;;;;;6213509;23;20190;-85
2023/06/05 06:30:10;;;;;;;1.50;1.40;;;;;;;;;;6213883;23;20182;-86
2023/06/05 06:32:41;;;;;;;1.53;1.43;;;;;;;;;;6213689;23;20288;-84
2023/06/05 06:35:13;;;;;;;1.63;1.57;;;;;;;;;;6214362;23;20276;-86
2023/06/05 06:37:45;;;;;;;2.73;1.57;;;;;;;;;;6213307;23;20170;-85
2023/06/05 06:40:14;;;;;;;1.97;1.87;;;;;;;;;;6213395;23;20174;-85
2023/06/05 06:42:42;;;;;;;0.80;0.80;;;;;;;;;;6213728;23;20170;-86
2023/06/05 06:45:12;;;;;;;2.17;2.00;;;;;;;;;;6213251;23;20253;-86
2023/06/05 06:47:42;;;;;;;2.30;2.00;;;;;;;;;;6213544;23;20173;-85
2023/06/05 06:50:26;;;;;;;1.70;1.30;;;;;;;;;;6213784;23;20209;-86
2023/06/05 06:52:56;;;;;;;0.90;0.90;;;;;;;;;;6214140;23;20193;-85
2023/06/05 06:55:25;;;;;;;2.33;2.13;;;;;;;;;;6213767;23;20171;-86
2023/06/05 06:57:53;;;;;;;2.20;2.00;;;;;;;;;;6214759;23;20249;-86
2023/06/05 07:00:23;;;;;;;0.53;0.53;;;;;;;;;;6216200;23;20182;-85
2023/06/05 07:02:52;;;;;;;2.10;1.87;;;;;;;;;;6215227;23;20169;-85
2023/06/05 07:05:22;;;;;;;1.67;1.17;;;;;;;;;;6215589;23;20178;-85
2023/06/05 07:07:51;;;;;;;2.03;1.83;;;;;;;;;;6216022;23;20197;-85
2023/06/05 07:10:33;;;;;;;0.80;0.80;;;;;;;;;;6214755;23;20185;-85
2023/06/05 07:13:01;;;;;;;1.60;1.50;;;;;;;;;;6215434;23;20248;-85
2023/06/05 07:15:30;;;;;;;1.30;1.20;;;;;;;;;;6215573;23;20222;-85
2023/06/05 07:17:59;;;;;;;1.03;1.00;;;;;;;;;;6215083;23;20174;-85
2023/06/05 07:20:28;;;;;;;1.37;1.27;;;;;;;;;;6215667;23;20200;-86
2023/06/05 07:22:57;;;;;;;1.03;1.03;;;;;;;;;;6216025;23;20230;-85
2023/06/05 07:25:27;;;;;;;2.17;1.57;;;;;;;;;;6215299;23;20189;-85
2023/06/05 07:27:59;;;;;;;1.80;1.43;;;;;;;;;;6215362;23;20197;-85
2023/06/05 07:30:28;;;;;;;1.47;1.37;;;;;;;;;;6215799;23;20174;-85
2023/06/05 07:32:57;;;;;;;1.90;1.57;;;;;;;;;;6215519;23;20178;-84
2023/06/05 07:35:26;;;;;;;6.13;2.10;;;;;;;;;;6215017;23;20166;-85
2023/06/05 07:37:55;;;;;;;1.87;1.37;;;;;;;;;;6215035;23;20189;-85
2023/06/05 07:40:26;;;;;;;1.70;1.60;;;;;;;;;;6215258;23;20167;-85
2023/06/05 07:42:56;;;;;;;2.40;2.13;;;;;;;;;;6214894;23;20173;-85
2023/06/05 07:45:28;;;;;;;1.60;1.50;;;;;;;;;;6215409;23;20171;-85
2023/06/05 07:47:59;;;;;;;1.90;1.57;;;;;;;;;;6215834;23;20181;-85
2023/06/05 07:50:30;;;;;;;1.07;1.03;;;;;;;;;;6215337;23;20175;-85
2023/06/05 07:52:58;;;;;;;1.43;1.33;;;;;;;;;;6215032;23;20186;-85
2023/06/05 07:55:27;;;;;;;0.93;0.93;;;;;;;;;;6215731;23;20260;-86
2023/06/05 07:58:01;;;;;;;0.90;0.90;;;;;;;;;;6215283;23;20207;-86
2023/06/05 08:00:29;;;;;;;4.17;2.50;;;;;;;;;;6215253;23;20181;-86
2023/06/05 08:09:15;;;;;;;2.50;1.83;;;;;;;;;;6095292;23;20189;-87
2023/06/05 08:11:51;;;;;;;2.73;2.47;;;;;;;;;;6214960;23;20197;-84
2023/06/05 08:14:30;;;;;;;1.10;1.00;;;;;;;;;;6213671;23;20258;-87
2023/06/05 08:17:02;;;;;;;1.87;1.70;;;;;;;;;;6214312;23;20202;-86
2023/06/05 08:19:31;;;;;;;2.53;1.80;;;;;;;;;;6214648;23;20174;-87
2023/06/05 08:22:02;;;;;;;2.70;2.20;;;;;;;;;;6214633;23;20218;-87
2023/06/05 08:24:38;;;;;;;2.33;1.47;;;;;;;;;;6213994;23;20170;-87
2023/06/05 08:27:08;;;;;;;2.57;2.37;;;;;;;;;;6212390;23;20194;-88
2023/06/05 08:29:39;;;;;;;1.83;1.70;;;;;;;;;;6213931;23;20179;-86
2023/06/05 08:32:07;;;;;;;2.07;1.87;;;;;;;;;;6212868;23;20240;-87
2023/06/05 08:34:37;;;;;;;2.90;2.00;;;;;;;;;;6213996;23;20198;-88
2023/06/05 08:37:06;;;;;;;1.17;1.17;;;;;;;;;;6213802;23;20260;-87
2023/06/05 08:39:37;;;;;;;3.50;2.40;;;;;;;;;;6214424;23;20205;-89
2023/06/05 08:42:07;;;;;;;3.43;2.40;;;;;;;;;;6216955;23;20221;-88
2023/06/05 08:44:43;;;;;;;1.30;1.20;;;;;;;;;;6217558;23;20166;-88
2023/06/05 08:47:31;;;;;;;2.83;1.40;;;;;;;;;;6214939;23;20202;-87
2023/06/05 08:50:04;;;;;;;1.63;1.53;;;;;;;;;;6214719;23;20221;-88
2023/06/05 08:52:38;;;;;;;1.20;1.20;;;;;;;;;;6214684;23;20209;-87
2023/06/05 08:55:12;;;;;;;1.23;1.23;;;;;;;;;;6216000;23;20195;-88
2023/06/05 08:57:41;;;;;;;1.67;1.57;;;;;;;;;;6212994;23;20253;-87
2023/06/05 09:00:14;;;;;;;1.63;1.53;;;;;;;;;;6216102;23;20261;-89
2023/06/05 09:02:46;;;;;;;1.10;1.10;;;;;;;;;;6215718;23;20177;-87
2023/06/05 09:05:15;;;;;;;2.40;2.20;;;;;;;;;;6217066;23;20185;-89
2023/06/05 09:07:44;;;;;;;1.80;1.70;;;;;;;;;;6215533;23;20171;-87
2023/06/05 09:10:30;;;;;;;2.07;1.90;;;;;;;;;;6217169;23;20174;-88
2023/06/05 09:13:00;;;;;;;1.67;1.57;;;;;;;;;;6215242;23;20193;-87
2023/06/05 09:15:31;;;;;;;1.70;1.60;;;;;;;;;;6214077;23;20241;-87
2023/06/05 09:18:08;;;;;;;1.40;1.30;;;;;;;;;;6211782;23;20170;-86
2023/06/05 09:20:37;;;;;;;1.33;1.23;;;;;;;;;;6212482;23;20184;-88
2023/06/05 09:23:24;;;;;;;1.70;1.60;;;;;;;;;;6214996;23;20257;-86
2023/06/05 09:25:56;;;;;;;5.80;1.77;;;;;;;;;;6217691;23;20171;-85
2023/06/05 09:28:28;;;;;;;1.00;1.00;;;;;;;;;;6217870;23;20229;-85
2023/06/05 09:31:01;;;;;;;1.87;1.63;;;;;;;;;;6217783;23;20168;-85
2023/06/05 09:33:31;;;;;;;2.40;1.77;;;;;;;;;;6215278;23;20218;-86
2023/06/05 09:36:06;;;;;;;2.20;2.00;;;;;;;;;;6218906;23;20225;-86
2023/06/05 09:38:45;;;;;;;2.27;2.07;;;;;;;;;;6215217;23;20174;-87
2023/06/05 09:41:18;;;;;;;2.13;1.63;;;;;;;;;;6215408;23;20183;-87
2023/06/05 09:43:49;;;;;;;2.00;1.90;;;;;;;;;;6217330;23;20170;-87
2023/06/05 09:46:21;;;;;;;1.03;1.03;;;;;;;;;;6216244;23;20177;-86
2023/06/05 09:48:54;;;;;;;2.57;2.37;;;;;;;;;;6219833;23;20170;-86
2023/06/05 09:51:32;;;;;;;4.67;2.13;;;;;;;;;;6218467;23;20291;-85
2023/06/05 09:54:01;;;;;;;0.80;0.80;;;;;;;;;;6219887;23;20174;-86
2023/06/05 09:56:37;;;;;;;1.97;1.50;;;;;;;;;;6222868;23;20171;-86
2023/06/05 09:59:10;;;;;;;1.63;1.53;;;;;;;;;;6221619;23;20174;-86
2023/06/05 10:01:43;;;;;;;1.37;1.00;;;;;;;;;;6221935;23;20206;-86
2023/06/05 10:04:12;;;;;;;1.60;1.20;;;;;;;;;;6222179;23;20181;-86
2023/06/05 10:06:42;;;;;;;1.53;1.43;;;;;;;;;;6218355;23;20175;-86
2023/06/05 10:09:16;;;;;;;2.03;1.87;;;;;;;;;;6220810;23;20172;-86
2023/06/05 10:11:49;;;;;;;6.93;2.57;;;;;;;;;;6220638;23;20213;-85
2023/06/05 10:14:19;;;;;;;2.87;1.60;;;;;;;;;;6218916;23;20166;-86
2023/06/05 10:16:52;;;;;;;1.60;1.50;;;;;;;;;;6219290;23;20181;-86
2023/06/05 10:19:25;;;;;;;1.63;1.37;;;;;;;;;;6219425;23;20170;-87
2023/06/05 10:21:54;;;;;;;4.67;1.80;;;;;;;;;;6217112;23;20166;-86
2023/06/05 10:24:25;;;;;;;1.60;1.50;;;;;;;;;;6217829;23;20174;-86
2023/06/05 10:27:11;;;;;;;2.63;1.70;;;;;;;;;;6218071;23;20182;-86
2023/06/05 10:29:52;;;;;;;2.57;2.37;;;;;;;;;;6206974;23;20171;-86
2023/06/05 10:32:26;;;;;;;3.43;2.43;;;;;;;;;;6220133;23;20174;-86
2023/06/05 10:34:58;;;;;;;2.63;2.20;;;;;;;;;;6219559;23;20207;-86
2023/06/05 10:37:33;;;;;;;1.20;1.10;;;;;;;;;;6220064;23;20170;-86
2023/06/05 10:40:04;;;;;;;3.43;2.17;;;;;;;;;;6218784;23;20172;-86
2023/06/05 10:42:34;;;;;;;2.83;1.97;;;;;;;;;;6218334;23;20167;-86
2023/06/05 10:45:03;;;;;;;1.40;1.30;;;;;;;;;;6219925;23;20178;-86
2023/06/05 10:47:54;;;;;;;3.30;2.17;;;;;;;;;;6217586;23;20197;-84
2023/06/05 10:50:32;;;;;;;3.03;2.70;;;;;;;;;;6216559;23;20177;-84
2023/06/05 10:53:03;;;;;;;1.03;1.03;;;;;;;;;;6215985;23;20224;-84
2023/06/05 10:55:43;;;;;;;1.00;1.00;;;;;;;;;;6215904;23;20197;-85
2023/06/05 10:58:13;;;;;;;3.70;2.60;;;;;;;;;;6217574;23;20217;-86
2023/06/05 11:01:00;;;;;;;1.93;1.73;;;;;;;;;;6217163;23;20178;-87
2023/06/05 11:03:50;;;;;;;1.80;1.70;;;;;;;;;;6197890;23;20183;-86
2023/06/05 11:06:22;;;;;;;6.50;3.87;;;;;;;;;;6215978;23;20172;-86
2023/06/05 11:09:11;;;;;;;9.10;2.13;;;;;;;;;;6217751;23;20176;-86
2023/06/05 11:12:01;;;;;;;4.53;3.07;;;;;;;;;;6219190;23;20171;-85
2023/06/05 11:14:46;;;;;;;2.97;2.20;;;;;;;;;;6215106;23;20236;-85
2023/06/05 11:17:28;;;;;;;1.50;1.33;;;;;;;;;;6215668;23;20181;-84
2023/06/05 11:19:59;;;;;;;2.77;2.57;;;;;;;;;;6215058;23;20168;-84
2023/06/05 11:22:29;;;;;;;1.77;1.67;;;;;;;;;;6215077;23;20179;-85
2023/06/05 11:25:16;;;;;;;3.03;2.80;;;;;;;;;;6215380;23;20180;-85
2023/06/05 11:27:46;;;;;;;2.43;1.40;;;;;;;;;;6215308;23;20255;-85
2023/06/05 11:30:16;;;;;;;2.43;2.20;;;;;;;;;;6214977;23;20208;-84
2023/06/05 11:33:12;;;;;;;6.17;2.07;;;;;;;;;;6215773;23;20199;-84
2023/06/05 11:35:41;;;;;;;4.47;2.40;;;;;;;;;;6215248;23;20194;-84
2023/06/05 11:38:12;;;;;;;1.03;1.03;;;;;;;;;;6214516;23;20184;-84
2023/06/05 11:40:45;;;;;;;2.57;1.33;;;;;;;;;;6215681;23;20261;-84
2023/06/05 11:43:15;;;;;;;2.63;2.43;;;;;;;;;;6215040;23;20189;-84
2023/06/05 11:45:44;;;;;;;2.17;1.97;;;;;;;;;;6215402;23;20175;-85
2023/06/05 11:48:15;;;;;;;0.70;0.70;;;;;;;;;;6214894;23;20199;-84
2023/06/05 11:50:53;;;;;;;4.03;2.67;;;;;;;;;;6215132;23;20175;-84
2023/06/05 11:53:25;;;;;;;25.80;3.73;;;;;;;;;;6215241;23;20181;-85
2023/06/05 11:56:07;;;;;;;2.13;1.93;;;;;;;;;;6214732;23;20279;-85
2023/06/05 11:58:39;;;;;;;2.47;1.97;;;;;;;;;;6214754;23;20226;-85
2023/06/05 12:01:12;;;;;;;5.13;2.23;;;;;;;;;;6215240;23;20226;-85
2023/06/05 12:03:41;;;;;;;2.87;2.23;;;;;;;;;;6214457;23;20199;-85
2023/06/05 12:06:13;;;;;;;2.60;2.37;;;;;;;;;;6215382;23;20182;-85
2023/06/05 12:08:44;;;;;;;1.60;1.50;;;;;;;;;;6214859;23;20181;-85
2023/06/05 12:11:26;;;;;;;2.73;1.80;;;;;;;;;;6213759;23;20183;-85
2023/06/05 12:14:13;;;;;;;3.47;2.70;;;;;;;;;;6215870;23;20172;-85
2023/06/05 12:16:43;;;;;;;2.83;1.90;;;;;;;;;;6215367;23;20200;-87
2023/06/05 12:19:19;;;;;;;0.93;0.90;;;;;;;;;;6214326;23;20232;-87
2023/06/05 12:22:02;;;;;;;1.80;1.33;;;;;;;;;;6214741;23;20183;-85
2023/06/05 12:24:34;;;;;;;2.20;1.57;;;;;;;;;;6215006;23;20175;-85
2023/06/05 12:27:12;;;;;;;5.40;3.37;;;;;;;;;;6214567;23;20209;-85
2023/06/05 12:29:55;;;;;;;1.43;1.33;;;;;;;;;;6214374;23;20169;-85
2023/06/05 12:32:28;;;;;;;1.87;1.77;;;;;;;;;;6209931;23;20184;-89
2023/06/05 12:35:01;;;;;;;10.10;2.43;;;;;;;;;;6214905;23;20225;-91
2023/06/05 12:37:44;;;;;;;2.73;2.53;;;;;;;;;;6213317;23;20187;-87
2023/06/05 12:40:20;;;;;;;2.47;1.63;;;;;;;;;;6214547;23;20173;-87
2023/06/05 12:43:14;;;;;;;1.90;1.73;;;;;;;;;;6214085;23;20298;-87
2023/06/05 12:45:45;;;;;;;2.63;1.33;;;;;;;;;;6213339;23;20176;-87
2023/06/05 12:48:15;;;;;;;3.17;2.50;;;;;;;;;;6213430;23;20296;-87
2023/06/05 12:54:19;;;;;;;1.50;1.03;;;;;;;;;;6215285;23;20212;-88
2023/06/05 12:57:26;;;;;;;;;;;;;;;;;;;;;
2023/06/05 13:00:33;;;;;;;1.50;1.40;;;;;;;;;;6092157;23;20187;-89
2023/06/05 13:03:33;;;;;;;2.03;1.60;;;;;;;;;;6097002;23;20179;-87
2023/06/05 13:10:11;;;;;;;3.83;2.27;;;;;;;;;;6005828;23;20223;-88
2023/06/05 13:13:10;;;;;;;2.43;2.23;;;;;;;;;;6010463;23;20191;-87
2023/06/05 13:16:34;;;;;;;2.23;2.03;;;;;;;;;;6094608;23;20206;-90
2023/06/05 13:19:25;;;;;;;2.87;2.40;;;;;;;;;;6092934;23;20273;-87
2023/06/05 13:22:08;;;;;;;3.50;2.57;;;;;;;;;;6149739;23;20181;-89
2023/06/05 13:28:59;;;;;;;1.53;0.97;;;;;;;;;;6139946;23;20199;-87
2023/06/05 13:31:49;;;;;;;3.63;3.10;;;;;;;;;;6153693;23;20168;-87
2023/06/05 13:38:24;;;;;;;2.67;2.30;;;;;;;;;;6155413;23;20203;-86
2023/06/05 13:44:09;;;;;;;3.97;2.47;;;;;;;;;;6139233;23;20189;-87
2023/06/05 14:09:27;;;;;;;2.17;1.17;;;;;;;;;;5978157;23;20186;-87
2023/06/05 14:12:49;;;;;;;;;;;;;;;;;;;;;
2023/06/05 14:16:10;;;;;;;2.13;2.00;;;;;;;;;;6064602;23;20186;-86
2023/06/05 14:26:00;;;;;;;9.03;2.07;;;;;;;;;;6034357;23;20235;-86
2023/06/05 14:28:43;;;;;;;2.97;2.57;;;;;;;;;;6115728;23;20214;-86
2023/06/05 14:35:00;;;;;;;2.40;1.93;;;;;;;;;;6034325;23;20350;-87
2023/06/05 14:44:16;;;;;;;2.90;2.63;;;;;;;;;;6091505;23;20189;-86
2023/06/05 14:46:55;;;;;;;2.33;2.00;;;;;;;;;;6091215;23;20180;-86
2023/06/05 14:49:23;;;;;;;1.60;1.50;;;;;;;;;;6091468;23;20175;-86
2023/06/05 14:51:54;;;;;;;1.77;1.67;;;;;;;;;;6091266;23;20187;-87
2023/06/05 14:54:28;;;;;;;1.77;1.67;;;;;;;;;;6091631;23;20281;-84
2023/06/05 14:56:57;;;;;;;2.97;2.40;;;;;;;;;;6091027;23;20246;-83
2023/06/05 14:59:27;;;;;;;3.00;2.33;;;;;;;;;;6095432;23;20246;-83
2023/06/05 15:02:03;;;;;;;3.97;2.50;;;;;;;;;;6120337;23;20187;-84
2023/06/05 15:04:35;;;;;;;2.97;2.00;;;;;;;;;;6120106;23;20184;-83
2023/06/05 15:07:04;;;;;;;1.40;1.30;;;;;;;;;;6120806;23;20230;-84
2023/06/05 15:09:33;;;;;;;3.73;2.33;;;;;;;;;;6120400;23;20253;-84
2023/06/05 15:19:33;;;;;;;1.33;1.20;;;;;;;;;;6177202;23;20184;-87
2023/06/05 15:25:39;;;;;;;2.40;2.23;;;;;;;;;;6160612;23;20186;-83
2023/06/05 15:28:08;;;;;;;3.70;1.37;;;;;;;;;;6183959;23;20239;-83
2023/06/05 15:30:37;;;;;;;2.63;1.50;;;;;;;;;;6184053;23;20180;-83
2023/06/05 15:33:06;;;;;;;1.53;1.43;;;;;;;;;;6183735;23;20279;-84
2023/06/05 15:35:35;;;;;;;3.13;2.57;;;;;;;;;;6184349;23;20192;-83
2023/06/05 15:38:03;;;;;;;3.27;2.47;;;;;;;;;;6184179;23;20214;-83
2023/06/05 15:40:32;;;;;;;2.00;1.53;;;;;;;;;;6184299;23;20170;-82
2023/06/05 15:43:07;;;;;;;1.20;1.10;;;;;;;;;;6182306;23;20178;-82
2023/06/05 15:45:36;;;;;;;2.97;2.67;;;;;;;;;;6184314;23;20182;-83
2023/06/05 15:48:05;;;;;;;3.20;2.80;;;;;;;;;;6183573;23;20242;-82
2023/06/05 15:50:34;;;;;;;5.33;3.63;;;;;;;;;;6183226;23;20234;-83
2023/06/05 15:53:03;;;;;;;5.57;3.67;;;;;;;;;;6183897;23;20182;-82
2023/06/05 15:55:32;;;;;;;5.07;2.87;;;;;;;;;;6183534;23;20214;-83
2023/06/05 15:58:00;;;;;;;0.97;0.93;;;;;;;;;;6182910;23;20201;-83
2023/06/05 16:00:29;;;;;;;2.23;1.90;;;;;;;;;;6202623;23;20272;-82
2023/06/05 16:02:57;;;;;;;4.97;2.43;;;;;;;;;;6213714;23;20186;-87
2023/06/05 16:05:26;;;;;;;4.90;3.60;;;;;;;;;;6213511;23;20181;-85
2023/06/05 16:07:56;;;;;;;3.30;2.33;;;;;;;;;;6213320;23;20173;-87
2023/06/05 16:10:24;;;;;;;1.73;1.63;;;;;;;;;;6213967;23;20174;-87
2023/06/05 16:12:53;;;;;;;2.60;1.70;;;;;;;;;;6213765;23;20187;-86
2023/06/05 16:15:22;;;;;;;2.13;1.67;;;;;;;;;;6213028;23;20180;-82
2023/06/05 16:17:51;;;;;;;2.30;2.10;;;;;;;;;;6212484;23;20613;-82
2023/06/05 16:20:20;;;;;;;3.83;2.93;;;;;;;;;;6214387;23;20180;-84
2023/06/05 16:22:48;;;;;;;2.27;2.07;;;;;;;;;;6212799;23;20176;-84
2023/06/05 16:25:18;;;;;;;1.80;1.67;;;;;;;;;;6212521;23;20174;-84
2023/06/05 16:27:47;;;;;;;2.50;2.13;;;;;;;;;;6213216;23;20287;-88
2023/06/05 16:30:18;;;;;;;3.00;2.40;;;;;;;;;;6214216;23;20181;-88
2023/06/05 16:32:48;;;;;;;3.00;2.37;;;;;;;;;;6213009;23;20185;-88